Time;durP1;ratioP1;P1;durP2;ratioP2;P2;SDS_P1;SDS_P2;PMS_P1;PMS_P2;Temp;Humidity;BMP_temperature;BMP_pressure;BME280_temperature;BME280_humidity;BME280_pressure;Samples;Min_cycle;Max_cycle;Signal;HPM_P1;HPM_P2
2024/01/21 00:01:45;;;;;;;8.32;6.00;;;;;;;;;;5109041;27;20026;-75
2024/01/21 00:04:11;;;;;;;8.15;7.30;;;;;;;;;;5127224;27;20473;-75
2024/01/21 00:06:38;;;;;;;4.88;4.43;;;;;;;;;;5076851;28;20509;-75
2024/01/21 00:09:04;;;;;;;8.10;7.40;;;;;;;;;;5109056;27;20039;-76
2024/01/21 00:11:30;;;;;;;7.90;4.95;;;;;;;;;;5111815;27;20035;-75
2024/01/21 00:13:56;;;;;;;7.28;6.68;;;;;;;;;;5113311;27;20041;-75
2024/01/21 00:16:22;;;;;;;8.57;6.90;;;;;;;;;;5113040;27;20032;-75
2024/01/21 00:18:49;;;;;;;7.53;5.35;;;;;;;;;;5133410;27;20045;-76
2024/01/21 00:21:15;;;;;;;6.63;6.03;;;;;;;;;;5132196;27;20042;-77
2024/01/21 00:23:41;;;;;;;6.88;6.28;;;;;;;;;;5136682;27;20035;-76
2024/01/21 00:26:07;;;;;;;9.35;6.20;;;;;;;;;;5148171;27;20476;-76
2024/01/21 00:28:33;;;;;;;8.65;7.47;;;;;;;;;;5137338;27;20038;-78
2024/01/21 00:30:59;;;;;;;17.75;15.98;;;;;;;;;;5134846;27;20019;-75
2024/01/21 00:33:26;;;;;;;6.95;6.00;;;;;;;;;;5113632;27;20551;-76
2024/01/21 00:35:52;;;;;;;11.05;7.22;;;;;;;;;;5112234;27;20669;-74
2024/01/21 00:38:18;;;;;;;6.32;5.72;;;;;;;;;;5131016;27;20027;-76
2024/01/21 00:40:44;;;;;;;9.25;6.93;;;;;;;;;;5112874;27;20031;-76
2024/01/21 00:43:10;;;;;;;7.78;6.97;;;;;;;;;;5112682;27;20031;-75
2024/01/21 00:45:36;;;;;;;9.23;8.32;;;;;;;;;;5114041;27;20038;-76
2024/01/21 00:48:02;;;;;;;6.45;5.65;;;;;;;;;;5130750;27;20031;-77
2024/01/21 00:50:28;;;;;;;7.45;6.35;;;;;;;;;;5112752;27;20059;-76
2024/01/21 00:52:54;;;;;;;10.18;8.32;;;;;;;;;;5130779;27;20266;-74
2024/01/21 00:55:20;;;;;;;9.98;8.90;;;;;;;;;;5112232;27;20043;-74
2024/01/21 00:57:46;;;;;;;11.07;7.95;;;;;;;;;;5132110;27;20386;-74
2024/01/21 01:00:12;;;;;;;8.93;8.02;;;;;;;;;;5130257;27;20043;-73
2024/01/21 01:02:38;;;;;;;11.63;10.55;;;;;;;;;;5130499;27;20035;-73
2024/01/21 01:05:04;;;;;;;10.15;7.13;;;;;;;;;;5130072;27;20087;-73
2024/01/21 01:07:30;;;;;;;12.48;10.57;;;;;;;;;;5112561;27;20059;-74
2024/01/21 01:09:56;;;;;;;11.70;10.48;;;;;;;;;;5131814;27;20500;-72
2024/01/21 01:12:22;;;;;;;12.32;9.02;;;;;;;;;;5129981;27;20521;-73
2024/01/21 01:14:48;;;;;;;11.90;9.88;;;;;;;;;;5111597;27;20651;-73
2024/01/21 01:17:14;;;;;;;10.50;8.38;;;;;;;;;;5111428;27;20019;-73
2024/01/21 01:19:40;;;;;;;11.82;9.13;;;;;;;;;;5130499;27;20038;-74
2024/01/21 01:22:07;;;;;;;7.45;6.72;;;;;;;;;;5129990;27;20123;-72
2024/01/21 01:24:33;;;;;;;11.38;8.25;;;;;;;;;;5131584;27;20027;-73
2024/01/21 01:26:58;;;;;;;13.77;12.00;;;;;;;;;;5091828;28;20054;-72
2024/01/21 01:29:24;;;;;;;12.48;9.15;;;;;;;;;;5128738;27;20454;-73
2024/01/21 01:31:50;;;;;;;7.65;6.97;;;;;;;;;;5111836;27;20047;-73
2024/01/21 01:34:16;;;;;;;14.77;11.25;;;;;;;;;;5111464;27;20043;-72
2024/01/21 01:36:42;;;;;;;12.80;10.98;;;;;;;;;;5131967;27;20095;-73
2024/01/21 01:39:08;;;;;;;9.27;8.20;;;;;;;;;;5111637;27;20039;-73
2024/01/21 01:41:34;;;;;;;11.05;8.27;;;;;;;;;;5130625;27;20742;-73
2024/01/21 01:44:00;;;;;;;9.43;8.45;;;;;;;;;;5111592;27;20091;-73
2024/01/21 01:46:26;;;;;;;6.85;6.00;;;;;;;;;;5111377;27;20595;-72
2024/01/21 01:48:52;;;;;;;7.93;7.10;;;;;;;;;;5131697;27;20042;-74
2024/01/21 01:51:18;;;;;;;11.07;6.43;;;;;;;;;;5129667;27;20027;-73
2024/01/21 01:53:44;;;;;;;8.88;7.75;;;;;;;;;;5129823;27;20074;-73
2024/01/21 01:56:10;;;;;;;8.07;6.03;;;;;;;;;;5110725;27;20066;-73
2024/01/21 01:58:39;;;;;;;12.65;7.20;;;;;;;;;;5111094;27;20027;-73
2024/01/21 02:01:05;;;;;;;5.82;5.28;;;;;;;;;;5111317;27;20068;-73
2024/01/21 02:03:31;;;;;;;12.50;9.00;;;;;;;;;;5112117;27;20027;-73
2024/01/21 02:05:59;;;;;;;10.95;9.77;;;;;;;;;;5078033;27;20409;-74
2024/01/21 02:08:25;;;;;;;8.18;7.38;;;;;;;;;;5128850;27;20193;-73
2024/01/21 02:10:51;;;;;;;13.63;9.82;;;;;;;;;;5129460;27;20079;-73
2024/01/21 02:13:17;;;;;;;6.80;6.13;;;;;;;;;;5093809;27;20577;-73
2024/01/21 02:15:43;;;;;;;10.20;9.25;;;;;;;;;;5132973;27;20421;-74
2024/01/21 02:18:09;;;;;;;9.13;6.68;;;;;;;;;;5139928;27;20087;-74
2024/01/21 02:20:35;;;;;;;9.95;8.63;;;;;;;;;;5129800;27;20039;-73
2024/01/21 02:23:02;;;;;;;12.07;9.82;;;;;;;;;;5130054;27;20035;-73
2024/01/21 02:25:28;;;;;;;8.50;7.13;;;;;;;;;;5128510;27;20095;-74
2024/01/21 02:27:53;;;;;;;13.43;9.30;;;;;;;;;;5112114;27;20027;-74
2024/01/21 02:30:19;;;;;;;10.63;8.52;;;;;;;;;;5110240;27;20023;-74
2024/01/21 02:32:45;;;;;;;12.80;9.30;;;;;;;;;;5086359;28;20543;-73
2024/01/21 02:35:11;;;;;;;7.18;5.95;;;;;;;;;;5070055;28;20046;-74
2024/01/21 02:37:37;;;;;;;10.13;7.43;;;;;;;;;;5108323;28;20616;-73
2024/01/21 02:40:03;;;;;;;13.60;9.95;;;;;;;;;;5108558;28;20039;-73
2024/01/21 02:42:29;;;;;;;14.68;12.07;;;;;;;;;;5109090;28;20031;-74
2024/01/21 02:44:55;;;;;;;11.20;10.05;;;;;;;;;;5089706;28;20040;-74
2024/01/21 02:47:23;;;;;;;9.77;8.77;;;;;;;;;;5107110;28;20032;-73
2024/01/21 02:49:49;;;;;;;17.25;11.68;;;;;;;;;;5108448;28;20043;-73
2024/01/21 02:52:15;;;;;;;14.80;10.52;;;;;;;;;;5089877;28;20027;-73
2024/01/21 02:54:41;;;;;;;9.35;7.63;;;;;;;;;;5108206;28;20421;-73
2024/01/21 02:57:07;;;;;;;8.05;6.82;;;;;;;;;;5107901;28;20277;-74
2024/01/21 02:59:32;;;;;;;7.60;6.15;;;;;;;;;;5108042;28;20050;-73
2024/01/21 03:01:58;;;;;;;13.70;10.30;;;;;;;;;;5108012;28;20031;-73
2024/01/21 03:04:24;;;;;;;12.95;9.20;;;;;;;;;;5107378;28;20035;-72
2024/01/21 03:06:50;;;;;;;8.60;6.70;;;;;;;;;;5108006;28;20035;-72
2024/01/21 03:09:16;;;;;;;10.63;8.15;;;;;;;;;;5107687;28;20122;-73
2024/01/21 03:11:42;;;;;;;13.75;10.98;;;;;;;;;;5106214;28;20103;-74
2024/01/21 03:14:08;;;;;;;9.48;7.40;;;;;;;;;;5106106;28;20391;-73
2024/01/21 03:16:34;;;;;;;11.25;9.35;;;;;;;;;;5106221;28;20028;-73
2024/01/21 03:19:00;;;;;;;10.48;8.43;;;;;;;;;;5108783;28;20040;-73
2024/01/21 03:21:26;;;;;;;10.07;9.07;;;;;;;;;;5106218;28;20057;-73
2024/01/21 03:23:52;;;;;;;7.45;6.47;;;;;;;;;;5107193;28;20050;-73
2024/01/21 03:26:17;;;;;;;9.35;7.65;;;;;;;;;;5105556;28;20020;-73
2024/01/21 03:28:43;;;;;;;9.23;6.28;;;;;;;;;;5107429;28;20067;-72
2024/01/21 03:31:09;;;;;;;10.52;9.50;;;;;;;;;;5089773;28;20084;-73
2024/01/21 03:33:35;;;;;;;9.57;8.60;;;;;;;;;;5126430;27;20058;-73
2024/01/21 03:36:01;;;;;;;10.27;8.70;;;;;;;;;;5127790;27;20031;-73
2024/01/21 03:38:27;;;;;;;6.57;5.93;;;;;;;;;;5127271;27;20035;-71
2024/01/21 03:40:53;;;;;;;9.40;6.60;;;;;;;;;;5127939;27;20125;-73
2024/01/21 03:43:19;;;;;;;6.90;6.20;;;;;;;;;;5127402;27;20038;-72
2024/01/21 03:45:45;;;;;;;8.13;7.10;;;;;;;;;;5110277;28;20030;-72
2024/01/21 03:48:11;;;;;;;9.85;6.15;;;;;;;;;;5127058;27;20480;-74
2024/01/21 03:50:37;;;;;;;10.05;7.72;;;;;;;;;;5109188;27;20549;-74
2024/01/21 03:53:03;;;;;;;8.35;6.30;;;;;;;;;;5127820;27;20127;-74
2024/01/21 03:55:29;;;;;;;8.73;7.82;;;;;;;;;;5119053;27;20059;-75
2024/01/21 03:57:55;;;;;;;8.07;6.68;;;;;;;;;;5130091;27;20027;-75
2024/01/21 04:00:21;;;;;;;7.93;7.13;;;;;;;;;;5108711;27;20467;-75
2024/01/21 04:02:47;;;;;;;8.77;5.97;;;;;;;;;;5073542;28;20452;-76
2024/01/21 04:05:13;;;;;;;4.57;4.18;;;;;;;;;;5126606;27;20057;-76
2024/01/21 04:07:38;;;;;;;5.85;5.40;;;;;;;;;;5137713;27;20059;-75
2024/01/21 04:10:06;;;;;;;5.80;4.78;;;;;;;;;;5135185;27;20123;-75
2024/01/21 04:12:33;;;;;;;7.05;6.38;;;;;;;;;;5111017;27;20468;-75
2024/01/21 04:14:59;;;;;;;8.88;6.30;;;;;;;;;;5109898;28;20122;-75
2024/01/21 04:17:25;;;;;;;6.88;6.18;;;;;;;;;;5091886;27;20118;-75
2024/01/21 04:19:51;;;;;;;5.60;4.85;;;;;;;;;;5127404;27;20458;-76
2024/01/21 04:22:18;;;;;;;3.60;3.38;;;;;;;;;;5108958;27;20031;-76
2024/01/21 04:24:45;;;;;;;5.28;4.80;;;;;;;;;;5128861;27;20035;-75
2024/01/21 04:27:11;;;;;;;10.20;6.70;;;;;;;;;;5107979;27;20055;-75
2024/01/21 04:29:37;;;;;;;13.23;8.10;;;;;;;;;;5125330;27;20070;-75
2024/01/21 04:32:03;;;;;;;6.47;5.80;;;;;;;;;;5087317;28;20072;-75
2024/01/21 04:34:29;;;;;;;5.60;4.95;;;;;;;;;;5102124;28;20398;-76
2024/01/21 04:36:54;;;;;;;4.60;4.20;;;;;;;;;;5105962;28;20037;-75
2024/01/21 04:39:21;;;;;;;6.88;6.15;;;;;;;;;;5107280;28;20100;-75
2024/01/21 04:41:48;;;;;;;7.47;6.20;;;;;;;;;;5105899;28;20035;-75
2024/01/21 04:44:14;;;;;;;9.82;6.35;;;;;;;;;;5105819;28;20092;-76
2024/01/21 04:46:39;;;;;;;8.73;5.63;;;;;;;;;;5102629;28;20036;-75
2024/01/21 04:49:05;;;;;;;6.15;5.53;;;;;;;;;;5103990;28;20063;-75
2024/01/21 04:51:31;;;;;;;5.60;4.78;;;;;;;;;;5100749;28;20015;-75
2024/01/21 04:53:57;;;;;;;7.63;6.03;;;;;;;;;;5103628;28;20214;-73
2024/01/21 04:56:23;;;;;;;12.07;6.97;;;;;;;;;;5104382;28;20023;-74
2024/01/21 04:58:50;;;;;;;7.43;5.88;;;;;;;;;;5108699;28;20032;-75
2024/01/21 05:01:15;;;;;;;5.05;4.60;;;;;;;;;;5108664;28;20135;-73
2024/01/21 05:03:42;;;;;;;9.00;7.53;;;;;;;;;;5110830;28;20118;-73
2024/01/21 05:06:08;;;;;;;8.40;5.93;;;;;;;;;;5110794;28;20024;-72
2024/01/21 05:08:34;;;;;;;12.27;6.18;;;;;;;;;;5109310;28;20091;-73
2024/01/21 05:11:00;;;;;;;9.02;6.13;;;;;;;;;;5104279;28;20023;-78
2024/01/21 05:13:26;;;;;;;10.63;5.68;;;;;;;;;;5110660;28;20044;-74
2024/01/21 05:15:52;;;;;;;5.80;5.22;;;;;;;;;;5110868;28;20409;-76
2024/01/21 05:18:20;;;;;;;7.25;5.70;;;;;;;;;;5081722;28;20531;-74
2024/01/21 05:20:46;;;;;;;7.53;5.10;;;;;;;;;;5072636;28;20040;-74
2024/01/21 05:23:12;;;;;;;12.60;5.40;;;;;;;;;;5090162;28;20080;-74
2024/01/21 05:25:38;;;;;;;9.15;5.50;;;;;;;;;;5095379;28;20413;-75
2024/01/21 05:28:03;;;;;;;12.48;5.72;;;;;;;;;;5110641;28;20042;-74
2024/01/21 05:30:29;;;;;;;10.57;4.63;;;;;;;;;;5110046;28;20038;-74
2024/01/21 05:32:55;;;;;;;14.65;5.53;;;;;;;;;;5122430;27;20051;-74
2024/01/21 05:35:22;;;;;;;9.90;7.60;;;;;;;;;;5130394;27;20029;-75
2024/01/21 05:37:49;;;;;;;6.82;5.65;;;;;;;;;;5131076;27;20408;-74
2024/01/21 05:40:15;;;;;;;7.43;5.65;;;;;;;;;;5130435;27;20031;-74
2024/01/21 05:42:40;;;;;;;12.18;7.18;;;;;;;;;;5144257;27;20476;-74
2024/01/21 05:45:09;;;;;;;9.57;7.68;;;;;;;;;;5134194;27;20524;-73
2024/01/21 05:47:35;;;;;;;5.35;4.45;;;;;;;;;;5112558;27;20508;-74
2024/01/21 05:50:01;;;;;;;6.15;4.97;;;;;;;;;;5118629;27;20071;-74
2024/01/21 05:52:29;;;;;;;7.50;4.75;;;;;;;;;;5111914;27;20026;-74
2024/01/21 05:54:55;;;;;;;5.38;4.75;;;;;;;;;;5130586;27;20045;-74
2024/01/21 05:57:21;;;;;;;8.70;5.25;;;;;;;;;;5131727;27;20039;-75
2024/01/21 05:59:46;;;;;;;11.98;6.40;;;;;;;;;;5113464;27;20035;-73
2024/01/21 06:02:12;;;;;;;7.38;6.10;;;;;;;;;;5108346;27;20027;-75
2024/01/21 06:04:40;;;;;;;9.60;5.95;;;;;;;;;;5131919;27;20818;-75
2024/01/21 06:07:06;;;;;;;14.15;4.65;;;;;;;;;;5112636;27;20038;-76
2024/01/21 06:09:32;;;;;;;6.50;5.40;;;;;;;;;;5133646;27;20131;-77
2024/01/21 06:11:58;;;;;;;9.13;6.28;;;;;;;;;;5118186;27;20098;-79
2024/01/21 06:14:24;;;;;;;7.07;5.88;;;;;;;;;;5116757;27;20501;-78
2024/01/21 06:16:54;;;;;;;6.32;5.20;;;;;;;;;;5113379;27;20042;-78
2024/01/21 06:19:20;;;;;;;8.90;7.35;;;;;;;;;;5147632;27;20030;-78
2024/01/21 06:21:49;;;;;;;6.47;4.80;;;;;;;;;;5135260;27;20035;-76
2024/01/21 06:24:17;;;;;;;3.15;2.83;;;;;;;;;;5111146;27;20035;-75
2024/01/21 06:26:43;;;;;;;3.38;3.13;;;;;;;;;;5107783;28;20035;-76
2024/01/21 06:29:09;;;;;;;6.28;5.63;;;;;;;;;;5111489;27;20034;-74
2024/01/21 06:31:35;;;;;;;6.95;5.60;;;;;;;;;;5129343;27;20031;-75
2024/01/21 06:34:01;;;;;;;9.80;6.78;;;;;;;;;;5129568;27;20071;-74
2024/01/21 06:36:28;;;;;;;11.68;5.25;;;;;;;;;;5136073;27;20038;-76
2024/01/21 06:38:54;;;;;;;8.25;6.25;;;;;;;;;;5114095;27;20068;-74
2024/01/21 06:41:19;;;;;;;14.73;6.47;;;;;;;;;;5128818;27;20409;-75
2024/01/21 06:43:46;;;;;;;7.53;5.57;;;;;;;;;;5126847;27;20093;-76
2024/01/21 06:46:12;;;;;;;11.45;6.13;;;;;;;;;;5127223;27;20038;-75
2024/01/21 06:48:38;;;;;;;9.60;6.28;;;;;;;;;;5123939;27;20541;-75
2024/01/21 06:51:10;;;;;;;8.15;6.20;;;;;;;;;;5109152;27;20030;-76
2024/01/21 06:53:36;;;;;;;5.82;5.10;;;;;;;;;;5125998;27;20059;-73
2024/01/21 06:56:06;;;;;;;9.77;6.22;;;;;;;;;;5107470;28;20096;-75
2024/01/21 06:58:33;;;;;;;8.02;6.20;;;;;;;;;;5103569;27;20036;-79
2024/01/21 07:00:59;;;;;;;10.57;6.93;;;;;;;;;;5105416;27;20027;-78
2024/01/21 07:03:25;;;;;;;10.20;6.57;;;;;;;;;;5134650;27;20114;-78
2024/01/21 07:05:51;;;;;;;7.13;5.88;;;;;;;;;;5131558;27;20059;-74
2024/01/21 07:08:18;;;;;;;8.02;6.90;;;;;;;;;;5112499;27;20035;-78
2024/01/21 07:10:44;;;;;;;19.45;11.68;;;;;;;;;;5137915;27;20445;-74
2024/01/21 07:13:11;;;;;;;7.50;6.80;;;;;;;;;;5123538;27;20039;-75
2024/01/21 07:15:37;;;;;;;34.05;18.80;;;;;;;;;;5123104;27;20035;-74
2024/01/21 07:18:03;;;;;;;13.88;9.40;;;;;;;;;;5102691;27;20455;-75
2024/01/21 07:20:28;;;;;;;9.07;7.07;;;;;;;;;;5108247;27;20035;-74
2024/01/21 07:22:56;;;;;;;10.30;6.78;;;;;;;;;;5109215;27;20047;-74
2024/01/21 07:25:22;;;;;;;8.88;6.72;;;;;;;;;;5099473;27;20539;-74
2024/01/21 07:27:48;;;;;;;8.23;7.10;;;;;;;;;;5104355;27;20059;-77
2024/01/21 07:30:14;;;;;;;16.58;7.78;;;;;;;;;;5111505;27;20030;-75
2024/01/21 07:32:39;;;;;;;11.07;7.18;;;;;;;;;;5114152;27;20047;-76
2024/01/21 07:35:06;;;;;;;8.90;7.28;;;;;;;;;;5120461;27;20086;-75
2024/01/21 07:37:31;;;;;;;13.13;7.90;;;;;;;;;;5098799;28;20031;-76
2024/01/21 07:39:57;;;;;;;9.60;7.57;;;;;;;;;;5111038;27;20562;-77
2024/01/21 07:42:23;;;;;;;9.77;7.40;;;;;;;;;;5111535;27;20065;-75
2024/01/21 07:44:51;;;;;;;14.10;7.28;;;;;;;;;;5126142;27;20119;-75
2024/01/21 07:47:19;;;;;;;11.32;7.57;;;;;;;;;;5107719;27;20027;-75
2024/01/21 07:49:46;;;;;;;11.90;7.43;;;;;;;;;;5123001;27;20459;-76
2024/01/21 07:52:12;;;;;;;9.48;6.28;;;;;;;;;;5132294;27;20039;-75
2024/01/21 07:54:38;;;;;;;9.25;7.82;;;;;;;;;;5107687;28;20295;-76
2024/01/21 07:57:05;;;;;;;7.75;6.55;;;;;;;;;;5092057;27;20100;-75
2024/01/21 07:59:31;;;;;;;7.80;6.72;;;;;;;;;;5109602;27;20066;-77
2024/01/21 08:01:57;;;;;;;7.70;6.57;;;;;;;;;;5109734;28;20524;-76
2024/01/21 08:04:23;;;;;;;9.93;7.88;;;;;;;;;;5124364;27;20039;-75
2024/01/21 08:06:49;;;;;;;12.88;8.02;;;;;;;;;;5123183;27;20031;-76
2024/01/21 08:09:15;;;;;;;11.52;7.60;;;;;;;;;;5121703;27;20670;-79
2024/01/21 08:11:41;;;;;;;13.57;6.88;;;;;;;;;;5112813;27;20539;-76
2024/01/21 08:14:07;;;;;;;13.32;7.38;;;;;;;;;;5117287;28;20039;-77
2024/01/21 08:16:34;;;;;;;10.23;7.85;;;;;;;;;;5089846;28;20573;-79
2024/01/21 08:18:59;;;;;;;15.20;8.77;;;;;;;;;;5112656;27;20475;-79
2024/01/21 08:21:25;;;;;;;10.85;7.78;;;;;;;;;;5116546;27;20035;-77
2024/01/21 08:23:51;;;;;;;8.68;7.78;;;;;;;;;;5117250;27;20031;-77
2024/01/21 08:26:17;;;;;;;11.18;8.55;;;;;;;;;;5106022;27;20453;-78
2024/01/21 08:28:44;;;;;;;8.45;7.65;;;;;;;;;;5101565;27;20034;-76
2024/01/21 08:31:13;;;;;;;10.40;7.95;;;;;;;;;;5121490;27;20011;-80
2024/01/21 08:33:39;;;;;;;13.50;8.25;;;;;;;;;;5139949;27;20089;-85
2024/01/21 08:36:07;;;;;;;8.30;7.50;;;;;;;;;;5143358;27;20160;-82
2024/01/21 08:38:33;;;;;;;15.38;8.60;;;;;;;;;;5143202;27;20046;-83
2024/01/21 08:40:59;;;;;;;13.15;8.23;;;;;;;;;;5132277;27;20035;-80
2024/01/21 08:43:28;;;;;;;9.38;7.15;;;;;;;;;;5131073;27;20031;-82
2024/01/21 08:45:54;;;;;;;9.93;7.72;;;;;;;;;;5131153;27;20130;-80
2024/01/21 08:48:20;;;;;;;12.75;7.80;;;;;;;;;;5120403;27;20884;-80
2024/01/21 08:50:47;;;;;;;8.32;7.13;;;;;;;;;;5131575;27;20043;-83
2024/01/21 08:53:14;;;;;;;10.23;7.18;;;;;;;;;;5137743;27;20485;-85
2024/01/21 08:55:40;;;;;;;13.90;8.07;;;;;;;;;;5152932;27;20056;-83
2024/01/21 08:58:06;;;;;;;10.68;7.03;;;;;;;;;;5112234;27;20057;-81
2024/01/21 09:00:32;;;;;;;10.38;7.60;;;;;;;;;;5137757;27;20042;-82
2024/01/21 09:02:58;;;;;;;11.23;7.90;;;;;;;;;;5142890;27;20087;-82
2024/01/21 09:05:24;;;;;;;10.90;7.53;;;;;;;;;;5145710;27;20042;-83
2024/01/21 09:07:50;;;;;;;10.50;8.07;;;;;;;;;;5139912;27;20031;-83
2024/01/21 09:10:17;;;;;;;13.25;8.93;;;;;;;;;;5145796;27;20045;-84
2024/01/21 09:12:42;;;;;;;6.85;6.05;;;;;;;;;;5153723;27;20027;-85
2024/01/21 09:38:32;;;;;;;7.55;5.63;;;;;;;;;;5055512;28;20053;-79
2024/01/21 09:41:07;;;;;;;4.22;3.92;;;;;;;;;;5036713;28;20033;-77
2024/01/21 09:43:33;;;;;;;4.85;4.43;;;;;;;;;;5039519;28;20035;-76
2024/01/21 09:45:59;;;;;;;4.30;4.00;;;;;;;;;;5054698;28;20086;-76
2024/01/21 09:48:25;;;;;;;16.35;8.13;;;;;;;;;;5054298;28;20045;-76
2024/01/21 09:50:51;;;;;;;7.80;6.97;;;;;;;;;;5015800;28;20641;-76
2024/01/21 09:53:17;;;;;;;15.85;8.93;;;;;;;;;;5054450;28;20041;-76
2024/01/21 09:55:43;;;;;;;8.35;3.78;;;;;;;;;;5055658;28;20051;-77
2024/01/21 09:58:10;;;;;;;4.50;4.05;;;;;;;;;;5000575;28;20025;-76
2024/01/21 10:00:36;;;;;;;6.93;5.53;;;;;;;;;;5016549;28;20525;-76
2024/01/21 10:03:03;;;;;;;10.13;6.93;;;;;;;;;;5033937;28;20040;-76
2024/01/21 10:05:29;;;;;;;6.53;5.93;;;;;;;;;;5032954;28;20036;-76
2024/01/21 10:07:55;;;;;;;10.25;5.85;;;;;;;;;;5035111;28;20411;-76
2024/01/21 10:10:23;;;;;;;8.07;6.22;;;;;;;;;;5033544;28;20033;-77
2024/01/21 10:12:50;;;;;;;5.10;4.18;;;;;;;;;;5031531;28;20039;-76
2024/01/21 10:15:16;;;;;;;9.00;5.90;;;;;;;;;;5033046;28;20037;-77
2024/01/21 10:17:42;;;;;;;7.18;5.78;;;;;;;;;;5049770;28;20031;-76
2024/01/21 10:20:09;;;;;;;7.05;5.97;;;;;;;;;;5050464;28;20129;-76
2024/01/21 10:22:35;;;;;;;6.43;5.82;;;;;;;;;;5031008;28;20525;-75
2024/01/21 10:25:03;;;;;;;9.90;7.65;;;;;;;;;;5048427;28;20119;-75
2024/01/21 10:27:29;;;;;;;8.20;5.93;;;;;;;;;;5014651;28;20033;-74
2024/01/21 10:29:56;;;;;;;8.13;6.07;;;;;;;;;;5031986;28;20036;-75
2024/01/21 10:32:21;;;;;;;9.10;7.93;;;;;;;;;;5030908;28;20033;-76
2024/01/21 10:34:50;;;;;;;6.97;5.07;;;;;;;;;;5030050;28;20400;-75
2024/01/21 10:37:17;;;;;;;8.82;5.15;;;;;;;;;;5013721;28;20048;-76
2024/01/21 10:39:46;;;;;;;2.75;2.63;;;;;;;;;;5048053;28;20060;-76
2024/01/21 10:42:13;;;;;;;7.43;5.32;;;;;;;;;;5048302;28;20060;-75
2024/01/21 10:44:39;;;;;;;5.45;4.70;;;;;;;;;;5047719;28;20040;-75
2024/01/21 10:47:05;;;;;;;15.25;9.45;;;;;;;;;;5047795;28;20037;-76
2024/01/21 10:49:34;;;;;;;9.65;5.30;;;;;;;;;;5013906;28;20036;-75
2024/01/21 10:52:00;;;;;;;6.93;6.22;;;;;;;;;;5029872;28;20542;-75
2024/01/21 10:54:26;;;;;;;1.92;1.92;;;;;;;;;;5046540;28;20139;-74
2024/01/21 10:56:52;;;;;;;7.85;5.22;;;;;;;;;;5030144;28;20060;-75
2024/01/21 10:59:18;;;;;;;5.85;4.80;;;;;;;;;;5026680;28;20690;-74
2024/01/21 11:01:45;;;;;;;5.18;4.68;;;;;;;;;;5026021;28;20029;-75
2024/01/21 11:04:12;;;;;;;2.65;2.45;;;;;;;;;;5042189;28;20075;-75
2024/01/21 11:06:41;;;;;;;2.22;2.03;;;;;;;;;;5046298;28;20024;-74
2024/01/21 11:09:07;;;;;;;3.20;2.92;;;;;;;;;;5029649;28;20040;-75
2024/01/21 11:11:32;;;;;;;7.07;4.30;;;;;;;;;;5046562;28;20123;-73
2024/01/21 11:13:58;;;;;;;4.53;3.92;;;;;;;;;;5028291;28;20139;-74
2024/01/21 11:16:28;;;;;;;3.85;3.55;;;;;;;;;;5012744;28;20064;-74
2024/01/21 11:19:07;;;;;;;5.82;4.03;;;;;;;;;;5011858;28;20091;-74
2024/01/21 11:21:42;;;;;;;4.28;3.95;;;;;;;;;;5029333;28;20581;-75
2024/01/21 11:24:12;;;;;;;2.80;2.70;;;;;;;;;;5029965;28;20075;-73
2024/01/21 11:26:40;;;;;;;16.25;5.78;;;;;;;;;;5012857;28;20029;-74
2024/01/21 11:29:23;;;;;;;20.23;8.68;;;;;;;;;;5029399;28;20045;-74
2024/01/21 11:31:50;;;;;;;14.48;8.70;;;;;;;;;;5047368;28;20064;-74
2024/01/21 11:34:16;;;;;;;13.65;10.13;;;;;;;;;;5033584;28;20048;-74
2024/01/21 11:36:45;;;;;;;11.70;8.52;;;;;;;;;;5052874;28;20056;-74
2024/01/21 11:39:12;;;;;;;11.50;5.78;;;;;;;;;;5049832;28;20043;-74
2024/01/21 11:41:42;;;;;;;11.38;7.53;;;;;;;;;;5047049;28;20029;-74
2024/01/21 11:44:09;;;;;;;19.67;10.10;;;;;;;;;;5030077;28;20048;-74
2024/01/21 11:46:35;;;;;;;24.42;12.25;;;;;;;;;;5048269;28;20426;-74
2024/01/21 11:49:08;;;;;;;24.85;12.82;;;;;;;;;;5030228;28;20123;-74
2024/01/21 11:51:34;;;;;;;20.98;11.43;;;;;;;;;;5049371;28;20094;-74
2024/01/21 11:53:59;;;;;;;15.85;9.77;;;;;;;;;;5049444;28;20198;-74
2024/01/21 11:56:25;;;;;;;35.30;17.20;;;;;;;;;;5049591;28;20056;-73
2024/01/21 11:58:51;;;;;;;41.33;18.52;;;;;;;;;;5055591;28;20057;-73
2024/01/21 12:01:17;;;;;;;31.80;12.35;;;;;;;;;;5036935;28;20040;-74
2024/01/21 12:03:43;;;;;;;13.77;11.43;;;;;;;;;;5034529;28;20064;-74
2024/01/21 12:06:10;;;;;;;6.68;5.35;;;;;;;;;;5038281;28;20029;-74
2024/01/21 12:08:36;;;;;;;18.67;11.32;;;;;;;;;;5041509;28;20037;-74
2024/01/21 12:11:02;;;;;;;26.40;12.70;;;;;;;;;;5050256;28;20036;-73
2024/01/21 12:13:29;;;;;;;23.38;10.73;;;;;;;;;;5036975;28;20483;-73
2024/01/21 12:15:55;;;;;;;16.55;10.98;;;;;;;;;;5053365;28;20060;-74
2024/01/21 12:18:21;;;;;;;25.98;11.25;;;;;;;;;;5053933;28;20063;-74
2024/01/21 12:20:47;;;;;;;23.02;12.27;;;;;;;;;;5034466;28;20090;-74
2024/01/21 12:23:22;;;;;;;19.88;12.52;;;;;;;;;;5051570;28;20033;-74
2024/01/21 12:25:48;;;;;;;15.85;8.85;;;;;;;;;;5016452;28;20692;-73
2024/01/21 12:28:14;;;;;;;12.48;9.60;;;;;;;;;;5033490;28;20033;-74
2024/01/21 12:30:40;;;;;;;8.43;6.85;;;;;;;;;;5049794;28;20178;-74
2024/01/21 12:33:06;;;;;;;19.70;10.80;;;;;;;;;;5031921;28;20141;-74
2024/01/21 12:35:32;;;;;;;15.32;10.32;;;;;;;;;;5049789;28;20045;-74
2024/01/21 12:37:59;;;;;;;12.02;9.57;;;;;;;;;;5031703;28;20048;-74
2024/01/21 12:40:26;;;;;;;14.40;10.70;;;;;;;;;;5016755;28;20068;-74
2024/01/21 12:42:52;;;;;;;13.80;8.85;;;;;;;;;;5016184;28;20025;-73
2024/01/21 12:45:18;;;;;;;21.42;10.48;;;;;;;;;;5049597;28;20036;-74
2024/01/21 12:47:44;;;;;;;20.60;11.25;;;;;;;;;;5031056;28;20408;-73
2024/01/21 12:50:10;;;;;;;17.23;9.93;;;;;;;;;;5015337;28;20054;-73
2024/01/21 12:52:36;;;;;;;13.48;9.60;;;;;;;;;;5031214;28;20143;-75
2024/01/21 12:55:21;;;;;;;9.00;7.60;;;;;;;;;;5031670;28;20052;-74
2024/01/21 12:57:47;;;;;;;7.25;5.65;;;;;;;;;;5030602;28;20036;-73
2024/01/21 13:00:13;;;;;;;4.75;3.97;;;;;;;;;;5014560;28;20028;-74
2024/01/21 13:02:42;;;;;;;7.90;6.30;;;;;;;;;;5030678;28;20043;-74
2024/01/21 13:05:08;;;;;;;6.50;3.60;;;;;;;;;;5051477;28;20041;-74
2024/01/21 13:07:34;;;;;;;8.40;5.68;;;;;;;;;;5031735;28;20055;-73
2024/01/21 13:10:00;;;;;;;6.82;4.70;;;;;;;;;;5049621;28;20539;-74
2024/01/21 13:12:27;;;;;;;4.75;4.20;;;;;;;;;;5031207;28;20514;-74
2024/01/21 13:14:54;;;;;;;3.28;3.05;;;;;;;;;;5048885;28;20538;-73
2024/01/21 13:17:21;;;;;;;3.75;3.50;;;;;;;;;;5048799;28;20044;-74
2024/01/21 13:19:47;;;;;;;5.43;4.30;;;;;;;;;;5048447;28;20116;-74
2024/01/21 13:22:13;;;;;;;11.38;3.72;;;;;;;;;;5049445;28;20120;-74
2024/01/21 13:24:58;;;;;;;9.68;5.22;;;;;;;;;;5033991;28;20041;-74
2024/01/21 13:27:29;;;;;;;8.10;4.53;;;;;;;;;;5050913;28;20226;-74
2024/01/21 13:32:43;;;;;;;5.20;3.88;;;;;;;;;;5034508;28;20037;-74
2024/01/21 13:35:09;;;;;;;5.82;4.72;;;;;;;;;;5049109;28;20063;-74
2024/01/21 13:37:35;;;;;;;4.43;4.05;;;;;;;;;;5027113;28;20058;-74
2024/01/21 13:40:01;;;;;;;5.50;5.00;;;;;;;;;;5021313;28;20041;-73
2024/01/21 13:42:28;;;;;;;5.95;4.57;;;;;;;;;;4996459;28;20044;-74
2024/01/21 13:44:55;;;;;;;4.22;3.75;;;;;;;;;;5018571;28;20095;-74
2024/01/21 13:47:21;;;;;;;9.35;5.35;;;;;;;;;;5025922;28;20041;-74
2024/01/21 13:49:46;;;;;;;14.10;4.03;;;;;;;;;;5000842;28;20030;-75
2024/01/21 13:52:16;;;;;;;5.07;4.55;;;;;;;;;;5022928;28;20072;-75
2024/01/21 13:54:42;;;;;;;4.05;3.65;;;;;;;;;;5020284;28;20099;-75
2024/01/21 13:57:07;;;;;;;4.13;3.83;;;;;;;;;;5018173;28;20045;-74
2024/01/21 13:59:33;;;;;;;3.95;3.60;;;;;;;;;;5022908;28;20038;-75
2024/01/21 14:01:59;;;;;;;7.55;4.00;;;;;;;;;;5012610;28;20057;-74
2024/01/21 14:04:26;;;;;;;6.57;3.85;;;;;;;;;;4998636;28;20156;-75
2024/01/21 14:06:52;;;;;;;6.70;3.38;;;;;;;;;;4992401;28;20084;-75
2024/01/21 14:09:18;;;;;;;5.60;4.75;;;;;;;;;;5017025;28;20033;-75
2024/01/21 14:11:45;;;;;;;2.45;2.35;;;;;;;;;;5024572;28;20065;-74
2024/01/21 14:14:11;;;;;;;3.45;3.13;;;;;;;;;;5026060;28;20045;-76
2024/01/21 14:16:37;;;;;;;3.58;3.28;;;;;;;;;;5026365;28;20037;-76
2024/01/21 14:19:04;;;;;;;11.68;4.40;;;;;;;;;;5012372;28;20045;-74
2024/01/21 14:21:29;;;;;;;4.13;3.80;;;;;;;;;;5015589;28;20037;-74
2024/01/21 14:23:55;;;;;;;4.07;3.78;;;;;;;;;;5008161;28;20087;-75
2024/01/21 14:26:25;;;;;;;2.50;2.40;;;;;;;;;;5019285;28;20053;-75
2024/01/21 14:28:54;;;;;;;4.13;3.83;;;;;;;;;;5000957;28;20037;-75
2024/01/21 14:31:19;;;;;;;3.30;3.15;;;;;;;;;;5002546;28;20036;-76
2024/01/21 14:33:45;;;;;;;3.45;3.25;;;;;;;;;;5011781;28;20107;-74
2024/01/21 14:36:11;;;;;;;3.67;2.63;;;;;;;;;;5018753;28;20021;-75
2024/01/21 14:38:39;;;;;;;2.05;1.95;;;;;;;;;;5048616;28;20530;-75
2024/01/21 14:41:04;;;;;;;2.55;2.45;;;;;;;;;;5032404;28;20033;-76
2024/01/21 14:43:30;;;;;;;4.40;2.53;;;;;;;;;;5046091;28;20052;-74
2024/01/21 14:45:56;;;;;;;11.65;3.45;;;;;;;;;;5028985;28;20442;-75
2024/01/21 14:48:22;;;;;;;9.65;5.10;;;;;;;;;;5015894;28;20044;-74
2024/01/21 14:50:49;;;;;;;10.82;6.32;;;;;;;;;;5031308;28;20521;-76
2024/01/21 14:53:15;;;;;;;5.72;5.22;;;;;;;;;;5050967;28;20045;-75
2024/01/21 14:55:43;;;;;;;5.43;4.75;;;;;;;;;;5033862;28;20041;-76
2024/01/21 14:58:09;;;;;;;8.23;4.53;;;;;;;;;;5036435;28;20101;-76